Aplington, Iowa
Current Conditions -  °F | °C
As of 4:55 PM on Sunday 21 Dec 2014 (Local Time) from KIFA Reporting Station
Overcast Overcast  
Wind Chill: 30°   Ceiling: 1900
Heat Index: 38°   Visibility: 10mi
Dew Point: 36°   Wind: 14mph
Humidity: 89%   Direction: 160°SSE
Pressure: 29.81"   Gusts: NA
Location:  42.58°N, 92.88°W
Report Text: KIFA 212255Z AUTO 16012KT 10SM SCT012 OVC019 04/02 A2981 RMK AO2 T00360020
Loading
Personal Weather Stations






























Interactive Weather Map New forecast layout! Learn more

10-Day Weather Forecast

Advertisements
Track Severe Weather on mobile